sensor_id;sensor_type;location;lat;lon;timestamp;P1;P2;P0
36453;PMS5003;22478;51.740;-1.314;2023-04-01T00:01:06;28;26;
36453;PMS5003;22478;51.740;-1.314;2023-04-01T00:03:33;24;24;
36453;PMS5003;22478;51.740;-1.314;2023-04-01T00:06:01;22;22;
36453;PMS5003;22478;51.740;-1.314;2023-04-01T00:08:28;32;31;
36453;PMS5003;22478;51.740;-1.314;2023-04-01T00:10:56;35;33;
36453;PMS5003;22478;51.740;-1.314;2023-04-01T00:13:24;29;27;
36453;PMS5003;22478;51.740;-1.314;2023-04-01T00:15:52;36;35;
36453;PMS5003;22478;51.740;-1.314;2023-04-01T00:18:21;36;34;
36453;PMS5003;22478;51.740;-1.314;2023-04-01T00:20:50;26;26;
36453;PMS5003;22478;51.740;-1.314;2023-04-01T00:23:18;24;23;
36453;PMS5003;22478;51.740;-1.314;2023-04-01T00:25:46;30;29;
36453;PMS5003;22478;51.740;-1.314;2023-04-01T00:28:14;35;35;
36453;PMS5003;22478;51.740;-1.314;2023-04-01T00:30:41;25;25;
36453;PMS5003;22478;51.740;-1.314;2023-04-01T00:33:08;29;27;
36453;PMS5003;22478;51.740;-1.314;2023-04-01T00:35:36;28;27;
36453;PMS5003;22478;51.740;-1.314;2023-04-01T00:38:04;24;22;
36453;PMS5003;22478;51.740;-1.314;2023-04-01T00:40:34;31;29;
36453;PMS5003;22478;51.740;-1.314;2023-04-01T00:43:08;26;26;
36453;PMS5003;22478;51.740;-1.314;2023-04-01T00:45:39;29;27;
36453;PMS5003;22478;51.740;-1.314;2023-04-01T00:48:09;26;26;
36453;PMS5003;22478;51.740;-1.314;2023-04-01T00:50:41;38;36;
36453;PMS5003;22478;51.740;-1.314;2023-04-01T00:53:12;35;33;
36453;PMS5003;22478;51.740;-1.314;2023-04-01T00:55:42;48;43;
36453;PMS5003;22478;51.740;-1.314;2023-04-01T00:58:15;34;34;
36453;PMS5003;22478;51.740;-1.314;2023-04-01T01:00:45;29;29;
36453;PMS5003;22478;51.740;-1.314;2023-04-01T01:03:15;32;30;
36453;PMS5003;22478;51.740;-1.314;2023-04-01T01:05:47;42;39;
36453;PMS5003;22478;51.740;-1.314;2023-04-01T01:08:29;38;37;
36453;PMS5003;22478;51.740;-1.314;2023-04-01T01:11:04;35;34;
36453;PMS5003;22478;51.740;-1.314;2023-04-01T01:13:36;30;28;
36453;PMS5003;22478;51.740;-1.314;2023-04-01T01:16:12;28;28;
36453;PMS5003;22478;51.740;-1.314;2023-04-01T01:18:47;30;29;
36453;PMS5003;22478;51.740;-1.314;2023-04-01T01:21:29;32;29;
36453;PMS5003;22478;51.740;-1.314;2023-04-01T01:24:28;29;26;
36453;PMS5003;22478;51.740;-1.314;2023-04-01T01:27:09;33;33;
36453;PMS5003;22478;51.740;-1.314;2023-04-01T01:30:12;25;24;
36453;PMS5003;22478;51.740;-1.314;2023-04-01T01:33:24;29;26;
36453;PMS5003;22478;51.740;-1.314;2023-04-01T01:36:02;30;28;
36453;PMS5003;22478;51.740;-1.314;2023-04-01T01:38:33;28;26;
36453;PMS5003;22478;51.740;-1.314;2023-04-01T01:41:02;32;26;
36453;PMS5003;22478;51.740;-1.314;2023-04-01T01:43:32;27;27;
36453;PMS5003;22478;51.740;-1.314;2023-04-01T01:46:04;32;32;
36453;PMS5003;22478;51.740;-1.314;2023-04-01T01:48:36;35;35;
36453;PMS5003;22478;51.740;-1.314;2023-04-01T01:51:05;36;33;
36453;PMS5003;22478;51.740;-1.314;2023-04-01T01:53:32;23;23;
36453;PMS5003;22478;51.740;-1.314;2023-04-01T01:56:00;45;43;
36453;PMS5003;22478;51.740;-1.314;2023-04-01T01:58:28;31;28;
36453;PMS5003;22478;51.740;-1.314;2023-04-01T02:00:58;29;29;
36453;PMS5003;22478;51.740;-1.314;2023-04-01T02:03:29;33;31;
36453;PMS5003;22478;51.740;-1.314;2023-04-01T02:05:59;29;29;
36453;PMS5003;22478;51.740;-1.314;2023-04-01T02:08:30;27;25;
36453;PMS5003;22478;51.740;-1.314;2023-04-01T02:11:03;28;28;
36453;PMS5003;22478;51.740;-1.314;2023-04-01T02:13:35;30;29;
36453;PMS5003;22478;51.740;-1.314;2023-04-01T02:16:10;23;21;
36453;PMS5003;22478;51.740;-1.314;2023-04-01T02:18:40;27;26;
36453;PMS5003;22478;51.740;-1.314;2023-04-01T02:21:11;30;27;
36453;PMS5003;22478;51.740;-1.314;2023-04-01T02:23:39;21;21;
36453;PMS5003;22478;51.740;-1.314;2023-04-01T02:26:08;28;28;
36453;PMS5003;22478;51.740;-1.314;2023-04-01T02:28:38;21;20;
36453;PMS5003;22478;51.740;-1.314;2023-04-01T02:31:07;18;18;
36453;PMS5003;22478;51.740;-1.314;2023-04-01T02:33:36;43;40;
36453;PMS5003;22478;51.740;-1.314;2023-04-01T02:36:05;29;28;
36453;PMS5003;22478;51.740;-1.314;2023-04-01T02:38:36;46;44;
36453;PMS5003;22478;51.740;-1.314;2023-04-01T02:41:04;43;43;
36453;PMS5003;22478;51.740;-1.314;2023-04-01T02:43:32;39;33;
36453;PMS5003;22478;51.740;-1.314;2023-04-01T02:45:59;39;36;
36453;PMS5003;22478;51.740;-1.314;2023-04-01T02:48:27;41;39;
36453;PMS5003;22478;51.740;-1.314;2023-04-01T02:50:55;45;45;
36453;PMS5003;22478;51.740;-1.314;2023-04-01T02:53:22;40;39;
36453;PMS5003;22478;51.740;-1.314;2023-04-01T02:55:49;48;44;
36453;PMS5003;22478;51.740;-1.314;2023-04-01T02:58:17;41;40;
36453;PMS5003;22478;51.740;-1.314;2023-04-01T03:00:44;47;47;
36453;PMS5003;22478;51.740;-1.314;2023-04-01T03:03:11;54;49;
36453;PMS5003;22478;51.740;-1.314;2023-04-01T03:05:39;40;36;
36453;PMS5003;22478;51.740;-1.314;2023-04-01T03:08:06;44;43;
36453;PMS5003;22478;51.740;-1.314;2023-04-01T03:10:33;44;44;
36453;PMS5003;22478;51.740;-1.314;2023-04-01T03:13:01;44;42;
36453;PMS5003;22478;51.740;-1.314;2023-04-01T03:15:28;44;42;
36453;PMS5003;22478;51.740;-1.314;2023-04-01T03:17:55;46;46;
36453;PMS5003;22478;51.740;-1.314;2023-04-01T03:20:22;40;38;
36453;PMS5003;22478;51.740;-1.314;2023-04-01T03:22:49;35;34;
36453;PMS5003;22478;51.740;-1.314;2023-04-01T03:25:17;51;49;
36453;PMS5003;22478;51.740;-1.314;2023-04-01T03:27:45;49;46;
36453;PMS5003;22478;51.740;-1.314;2023-04-01T03:30:12;37;37;
36453;PMS5003;22478;51.740;-1.314;2023-04-01T03:32:40;49;47;
36453;PMS5003;22478;51.740;-1.314;2023-04-01T03:35:08;44;42;
36453;PMS5003;22478;51.740;-1.314;2023-04-01T03:37:35;41;39;
36453;PMS5003;22478;51.740;-1.314;2023-04-01T03:40:03;40;38;
36453;PMS5003;22478;51.740;-1.314;2023-04-01T03:42:31;44;41;
36453;PMS5003;22478;51.740;-1.314;2023-04-01T03:44:59;45;44;
36453;PMS5003;22478;51.740;-1.314;2023-04-01T03:47:26;33;33;
36453;PMS5003;22478;51.740;-1.314;2023-04-01T03:49:53;53;53;
36453;PMS5003;22478;51.740;-1.314;2023-04-01T03:52:20;48;46;
36453;PMS5003;22478;51.740;-1.314;2023-04-01T03:54:48;55;54;
36453;PMS5003;22478;51.740;-1.314;2023-04-01T03:57:15;26;23;
36453;PMS5003;22478;51.740;-1.314;2023-04-01T03:59:42;45;42;
36453;PMS5003;22478;51.740;-1.314;2023-04-01T04:02:09;35;34;
36453;PMS5003;22478;51.740;-1.314;2023-04-01T04:04:37;39;35;
36453;PMS5003;22478;51.740;-1.314;2023-04-01T04:07:03;46;44;
36453;PMS5003;22478;51.740;-1.314;2023-04-01T04:09:30;43;42;
36453;PMS5003;22478;51.740;-1.314;2023-04-01T04:11:58;48;46;
36453;PMS5003;22478;51.740;-1.314;2023-04-01T04:14:25;49;40;
36453;PMS5003;22478;51.740;-1.314;2023-04-01T04:16:53;46;44;
36453;PMS5003;22478;51.740;-1.314;2023-04-01T04:19:21;46;44;
36453;PMS5003;22478;51.740;-1.314;2023-04-01T04:21:48;49;48;
36453;PMS5003;22478;51.740;-1.314;2023-04-01T04:24:15;46;43;
36453;PMS5003;22478;51.740;-1.314;2023-04-01T04:26:43;41;38;
36453;PMS5003;22478;51.740;-1.314;2023-04-01T04:29:10;42;40;
36453;PMS5003;22478;51.740;-1.314;2023-04-01T04:31:37;57;53;
36453;PMS5003;22478;51.740;-1.314;2023-04-01T04:34:03;41;41;
36453;PMS5003;22478;51.740;-1.314;2023-04-01T04:36:31;52;50;
36453;PMS5003;22478;51.740;-1.314;2023-04-01T04:38:59;41;41;
36453;PMS5003;22478;51.740;-1.314;2023-04-01T04:41:26;38;38;
36453;PMS5003;22478;51.740;-1.314;2023-04-01T04:43:54;43;41;
36453;PMS5003;22478;51.740;-1.314;2023-04-01T04:46:22;38;37;
36453;PMS5003;22478;51.740;-1.314;2023-04-01T04:48:50;36;34;
36453;PMS5003;22478;51.740;-1.314;2023-04-01T04:51:18;49;47;
36453;PMS5003;22478;51.740;-1.314;2023-04-01T04:53:47;52;48;
36453;PMS5003;22478;51.740;-1.314;2023-04-01T04:56:17;40;40;
36453;PMS5003;22478;51.740;-1.314;2023-04-01T04:58:45;50;49;
36453;PMS5003;22478;51.740;-1.314;2023-04-01T05:01:13;45;41;
36453;PMS5003;22478;51.740;-1.314;2023-04-01T05:03:42;51;50;
36453;PMS5003;22478;51.740;-1.314;2023-04-01T05:06:12;51;48;
36453;PMS5003;22478;51.740;-1.314;2023-04-01T05:08:40;52;47;
36453;PMS5003;22478;51.740;-1.314;2023-04-01T05:11:09;46;39;
36453;PMS5003;22478;51.740;-1.314;2023-04-01T05:13:39;52;51;
36453;PMS5003;22478;51.740;-1.314;2023-04-01T05:16:07;55;54;
36453;PMS5003;22478;51.740;-1.314;2023-04-01T05:18:35;46;43;
36453;PMS5003;22478;51.740;-1.314;2023-04-01T05:21:02;53;49;
36453;PMS5003;22478;51.740;-1.314;2023-04-01T05:23:30;45;42;
36453;PMS5003;22478;51.740;-1.314;2023-04-01T05:25:59;62;54;
36453;PMS5003;22478;51.740;-1.314;2023-04-01T05:28:30;52;49;
36453;PMS5003;22478;51.740;-1.314;2023-04-01T05:30:58;53;47;
36453;PMS5003;22478;51.740;-1.314;2023-04-01T05:33:26;50;46;
36453;PMS5003;22478;51.740;-1.314;2023-04-01T05:35:54;64;60;
36453;PMS5003;22478;51.740;-1.314;2023-04-01T05:38:22;51;47;
36453;PMS5003;22478;51.740;-1.314;2023-04-01T05:40:49;55;54;
36453;PMS5003;22478;51.740;-1.314;2023-04-01T05:43:16;51;46;
36453;PMS5003;22478;51.740;-1.314;2023-04-01T05:45:43;57;54;
36453;PMS5003;22478;51.740;-1.314;2023-04-01T05:48:11;60;56;
36453;PMS5003;22478;51.740;-1.314;2023-04-01T05:50:39;48;44;
36453;PMS5003;22478;51.740;-1.314;2023-04-01T05:53:07;52;50;
36453;PMS5003;22478;51.740;-1.314;2023-04-01T05:55:34;44;43;
36453;PMS5003;22478;51.740;-1.314;2023-04-01T05:58:02;42;41;
36453;PMS5003;22478;51.740;-1.314;2023-04-01T06:00:29;43;41;
36453;PMS5003;22478;51.740;-1.314;2023-04-01T06:02:58;43;41;
36453;PMS5003;22478;51.740;-1.314;2023-04-01T06:05:27;34;34;
36453;PMS5003;22478;51.740;-1.314;2023-04-01T06:07:57;41;39;
36453;PMS5003;22478;51.740;-1.314;2023-04-01T06:10:32;37;36;
36453;PMS5003;22478;51.740;-1.314;2023-04-01T06:13:09;37;37;
36453;PMS5003;22478;51.740;-1.314;2023-04-01T06:15:48;36;32;
36453;PMS5003;22478;51.740;-1.314;2023-04-01T06:18:33;40;37;
36453;PMS5003;22478;51.740;-1.314;2023-04-01T06:21:19;44;42;
36453;PMS5003;22478;51.740;-1.314;2023-04-01T06:24:01;39;39;
36453;PMS5003;22478;51.740;-1.314;2023-04-01T06:26:43;36;34;
36453;PMS5003;22478;51.740;-1.314;2023-04-01T06:29:23;43;39;
36453;PMS5003;22478;51.740;-1.314;2023-04-01T06:32:06;43;41;
36453;PMS5003;22478;51.740;-1.314;2023-04-01T06:34:54;38;37;
36453;PMS5003;22478;51.740;-1.314;2023-04-01T06:37:43;39;39;
36453;PMS5003;22478;51.740;-1.314;2023-04-01T06:40:26;38;37;
36453;PMS5003;22478;51.740;-1.314;2023-04-01T06:43:21;44;39;
36453;PMS5003;22478;51.740;-1.314;2023-04-01T06:46:00;36;34;
36453;PMS5003;22478;51.740;-1.314;2023-04-01T06:48:48;50;43;
36453;PMS5003;22478;51.740;-1.314;2023-04-01T06:51:30;40;37;
36453;PMS5003;22478;51.740;-1.314;2023-04-01T06:54:07;38;38;
36453;PMS5003;22478;51.740;-1.314;2023-04-01T06:56:40;49;44;
36453;PMS5003;22478;51.740;-1.314;2023-04-01T06:59:12;39;36;
36453;PMS5003;22478;51.740;-1.314;2023-04-01T07:01:45;43;39;
36453;PMS5003;22478;51.740;-1.314;2023-04-01T07:04:16;50;45;
36453;PMS5003;22478;51.740;-1.314;2023-04-01T07:06:48;34;34;
36453;PMS5003;22478;51.740;-1.314;2023-04-01T07:09:20;36;35;
36453;PMS5003;22478;51.740;-1.314;2023-04-01T07:11:51;38;37;
36453;PMS5003;22478;51.740;-1.314;2023-04-01T07:14:24;48;47;
36453;PMS5003;22478;51.740;-1.314;2023-04-01T07:16:58;42;41;
36453;PMS5003;22478;51.740;-1.314;2023-04-01T07:19:31;51;50;
36453;PMS5003;22478;51.740;-1.314;2023-04-01T07:22:03;50;47;
36453;PMS5003;22478;51.740;-1.314;2023-04-01T07:24:34;42;38;
36453;PMS5003;22478;51.740;-1.314;2023-04-01T07:27:05;32;32;
36453;PMS5003;22478;51.740;-1.314;2023-04-01T07:29:35;41;40;
36453;PMS5003;22478;51.740;-1.314;2023-04-01T07:32:08;36;33;
36453;PMS5003;22478;51.740;-1.314;2023-04-01T07:34:44;32;31;
36453;PMS5003;22478;51.740;-1.314;2023-04-01T07:37:22;26;25;
36453;PMS5003;22478;51.740;-1.314;2023-04-01T07:39:57;33;32;
36453;PMS5003;22478;51.740;-1.314;2023-04-01T07:42:38;44;43;
36453;PMS5003;22478;51.740;-1.314;2023-04-01T07:45:18;34;33;
36453;PMS5003;22478;51.740;-1.314;2023-04-01T07:47:57;25;24;
36453;PMS5003;22478;51.740;-1.314;2023-04-01T07:50:34;29;24;
36453;PMS5003;22478;51.740;-1.314;2023-04-01T07:53:08;35;34;
36453;PMS5003;22478;51.740;-1.314;2023-04-01T07:55:44;28;28;
36453;PMS5003;22478;51.740;-1.314;2023-04-01T07:58:18;26;24;
36453;PMS5003;22478;51.740;-1.314;2023-04-01T08:00:57;29;29;
36453;PMS5003;22478;51.740;-1.314;2023-04-01T08:03:33;38;36;
36453;PMS5003;22478;51.740;-1.314;2023-04-01T08:06:12;37;35;
36453;PMS5003;22478;51.740;-1.314;2023-04-01T08:08:45;36;36;
36453;PMS5003;22478;51.740;-1.314;2023-04-01T08:11:27;35;34;
36453;PMS5003;22478;51.740;-1.314;2023-04-01T08:14:04;44;44;
36453;PMS5003;22478;51.740;-1.314;2023-04-01T08:16:41;28;26;
36453;PMS5003;22478;51.740;-1.314;2023-04-01T08:19:21;36;35;
36453;PMS5003;22478;51.740;-1.314;2023-04-01T08:21:57;31;30;
36453;PMS5003;22478;51.740;-1.314;2023-04-01T08:24:29;24;23;
36453;PMS5003;22478;51.740;-1.314;2023-04-01T08:27:03;32;31;
36453;PMS5003;22478;51.740;-1.314;2023-04-01T08:29:37;35;30;
36453;PMS5003;22478;51.740;-1.314;2023-04-01T08:32:10;36;35;
36453;PMS5003;22478;51.740;-1.314;2023-04-01T08:34:43;41;40;
36453;PMS5003;22478;51.740;-1.314;2023-04-01T08:37:17;30;27;
36453;PMS5003;22478;51.740;-1.314;2023-04-01T08:39:50;33;30;
36453;PMS5003;22478;51.740;-1.314;2023-04-01T08:42:28;33;33;
36453;PMS5003;22478;51.740;-1.314;2023-04-01T08:45:10;26;26;
36453;PMS5003;22478;51.740;-1.314;2023-04-01T08:47:50;33;31;
36453;PMS5003;22478;51.740;-1.314;2023-04-01T08:50:35;31;27;
36453;PMS5003;22478;51.740;-1.314;2023-04-01T08:53:18;42;41;
36453;PMS5003;22478;51.740;-1.314;2023-04-01T08:55:59;32;30;
36453;PMS5003;22478;51.740;-1.314;2023-04-01T08:58:46;27;26;
36453;PMS5003;22478;51.740;-1.314;2023-04-01T09:01:33;40;34;
36453;PMS5003;22478;51.740;-1.314;2023-04-01T09:04:20;47;45;
36453;PMS5003;22478;51.740;-1.314;2023-04-01T09:07:02;42;39;
36453;PMS5003;22478;51.740;-1.314;2023-04-01T09:09:42;43;41;
36453;PMS5003;22478;51.740;-1.314;2023-04-01T09:12:30;31;29;
36453;PMS5003;22478;51.740;-1.314;2023-04-01T09:15:16;34;29;
36453;PMS5003;22478;51.740;-1.314;2023-04-01T09:18:03;29;28;
36453;PMS5003;22478;51.740;-1.314;2023-04-01T09:20:44;54;51;
36453;PMS5003;22478;51.740;-1.314;2023-04-01T09:23:25;28;24;
36453;PMS5003;22478;51.740;-1.314;2023-04-01T09:26:07;22;22;
36453;PMS5003;22478;51.740;-1.314;2023-04-01T09:28:49;30;29;
36453;PMS5003;22478;51.740;-1.314;2023-04-01T09:31:36;31;27;
36453;PMS5003;22478;51.740;-1.314;2023-04-01T09:34:25;29;29;
36453;PMS5003;22478;51.740;-1.314;2023-04-01T09:37:13;26;24;
36453;PMS5003;22478;51.740;-1.314;2023-04-01T09:39:48;27;25;
36453;PMS5003;22478;51.740;-1.314;2023-04-01T09:42:34;32;30;
36453;PMS5003;22478;51.740;-1.314;2023-04-01T09:45:14;26;24;
36453;PMS5003;22478;51.740;-1.314;2023-04-01T09:47:57;32;31;
36453;PMS5003;22478;51.740;-1.314;2023-04-01T09:50:35;28;27;
36453;PMS5003;22478;51.740;-1.314;2023-04-01T09:53:16;21;21;
36453;PMS5003;22478;51.740;-1.314;2023-04-01T09:56:00;37;35;
36453;PMS5003;22478;51.740;-1.314;2023-04-01T10:00:39;36;34;
36453;PMS5003;22478;51.740;-1.314;2023-04-01T10:03:30;22;22;
36453;PMS5003;22478;51.740;-1.314;2023-04-01T10:06:27;30;29;
36453;PMS5003;22478;51.740;-1.314;2023-04-01T10:08:52;29;29;
36453;PMS5003;22478;51.740;-1.314;2023-04-01T10:11:14;29;29;
36453;PMS5003;22478;51.740;-1.314;2023-04-01T10:14:09;24;24;
36453;PMS5003;22478;51.740;-1.314;2023-04-01T10:16:55;19;19;
36453;PMS5003;22478;51.740;-1.314;2023-04-01T10:19:55;26;24;
36453;PMS5003;22478;51.740;-1.314;2023-04-01T10:22:43;26;26;
36453;PMS5003;22478;51.740;-1.314;2023-04-01T10:26:32;21;21;
36453;PMS5003;22478;51.740;-1.314;2023-04-01T10:30:24;31;30;
36453;PMS5003;22478;51.740;-1.314;2023-04-01T10:33:17;30;30;
36453;PMS5003;22478;51.740;-1.314;2023-04-01T10:36:03;40;40;
36453;PMS5003;22478;51.740;-1.314;2023-04-01T10:38:56;31;31;
36453;PMS5003;22478;51.740;-1.314;2023-04-01T10:41:57;26;25;
36453;PMS5003;22478;51.740;-1.314;2023-04-01T10:47:16;32;28;
36453;PMS5003;22478;51.740;-1.314;2023-04-01T10:50:05;31;28;
36453;PMS5003;22478;51.740;-1.314;2023-04-01T10:52:59;36;31;
36453;PMS5003;22478;51.740;-1.314;2023-04-01T10:55:48;33;27;
36453;PMS5003;22478;51.740;-1.314;2023-04-01T10:58:41;28;25;
36453;PMS5003;22478;51.740;-1.314;2023-04-01T11:01:46;26;25;
36453;PMS5003;22478;51.740;-1.314;2023-04-01T11:04:43;31;31;
36453;PMS5003;22478;51.740;-1.314;2023-04-01T11:07:39;25;23;
36453;PMS5003;22478;51.740;-1.314;2023-04-01T11:10:34;26;26;
36453;PMS5003;22478;51.740;-1.314;2023-04-01T11:13:39;19;17;
36453;PMS5003;22478;51.740;-1.314;2023-04-01T11:16:29;18;16;
36453;PMS5003;22478;51.740;-1.314;2023-04-01T11:19:20;24;23;
36453;PMS5003;22478;51.740;-1.314;2023-04-01T11:22:16;32;31;
36453;PMS5003;22478;51.740;-1.314;2023-04-01T11:25:17;19;16;
36453;PMS5003;22478;51.740;-1.314;2023-04-01T11:28:01;23;22;
36453;PMS5003;22478;51.740;-1.314;2023-04-01T11:30:41;19;19;
36453;PMS5003;22478;51.740;-1.314;2023-04-01T11:33:23;36;34;
36453;PMS5003;22478;51.740;-1.314;2023-04-01T11:36:00;35;35;
36453;PMS5003;22478;51.740;-1.314;2023-04-01T11:38:54;28;28;
36453;PMS5003;22478;51.740;-1.314;2023-04-01T11:41:32;24;24;
36453;PMS5003;22478;51.740;-1.314;2023-04-01T11:44:11;26;26;
36453;PMS5003;22478;51.740;-1.314;2023-04-01T11:46:48;27;25;
36453;PMS5003;22478;51.740;-1.314;2023-04-01T11:49:29;19;19;
36453;PMS5003;22478;51.740;-1.314;2023-04-01T11:52:11;15;14;
36453;PMS5003;22478;51.740;-1.314;2023-04-01T11:54:58;38;36;
36453;PMS5003;22478;51.740;-1.314;2023-04-01T11:57:43;30;29;
36453;PMS5003;22478;51.740;-1.314;2023-04-01T12:00:24;36;36;
36453;PMS5003;22478;51.740;-1.314;2023-04-01T12:03:10;31;28;
36453;PMS5003;22478;51.740;-1.314;2023-04-01T12:05:58;34;33;
36453;PMS5003;22478;51.740;-1.314;2023-04-01T12:08:35;26;26;
36453;PMS5003;22478;51.740;-1.314;2023-04-01T12:11:14;33;31;
36453;PMS5003;22478;51.740;-1.314;2023-04-01T12:13:49;30;30;
36453;PMS5003;22478;51.740;-1.314;2023-04-01T12:16:27;30;30;
36453;PMS5003;22478;51.740;-1.314;2023-04-01T12:19:09;23;21;
36453;PMS5003;22478;51.740;-1.314;2023-04-01T12:21:43;33;32;
36453;PMS5003;22478;51.740;-1.314;2023-04-01T12:24:29;30;27;
36453;PMS5003;22478;51.740;-1.314;2023-04-01T12:27:14;40;39;
36453;PMS5003;22478;51.740;-1.314;2023-04-01T12:32:12;34;30;
36453;PMS5003;22478;51.740;-1.314;2023-04-01T12:34:53;34;32;
36453;PMS5003;22478;51.740;-1.314;2023-04-01T12:37:31;29;28;
36453;PMS5003;22478;51.740;-1.314;2023-04-01T12:40:16;34;34;
36453;PMS5003;22478;51.740;-1.314;2023-04-01T12:42:59;33;31;
36453;PMS5003;22478;51.740;-1.314;2023-04-01T12:45:38;29;28;
36453;PMS5003;22478;51.740;-1.314;2023-04-01T12:48:23;34;31;
36453;PMS5003;22478;51.740;-1.314;2023-04-01T12:51:07;27;26;
36453;PMS5003;22478;51.740;-1.314;2023-04-01T12:54:03;29;27;
36453;PMS5003;22478;51.740;-1.314;2023-04-01T12:56:19;29;27;
36453;PMS5003;22478;51.740;-1.314;2023-04-01T12:59:02;34;32;
36453;PMS5003;22478;51.740;-1.314;2023-04-01T13:01:48;35;33;
36453;PMS5003;22478;51.740;-1.314;2023-04-01T13:04:32;30;28;
36453;PMS5003;22478;51.740;-1.314;2023-04-01T13:07:11;34;34;
36453;PMS5003;22478;51.740;-1.314;2023-04-01T13:09:51;32;31;
36453;PMS5003;22478;51.740;-1.314;2023-04-01T13:12:31;42;42;
36453;PMS5003;22478;51.740;-1.314;2023-04-01T13:15:12;38;38;
36453;PMS5003;22478;51.740;-1.314;2023-04-01T13:17:48;21;21;
36453;PMS5003;22478;51.740;-1.314;2023-04-01T13:20:23;29;29;
36453;PMS5003;22478;51.740;-1.314;2023-04-01T13:23:04;26;24;
36453;PMS5003;22478;51.740;-1.314;2023-04-01T13:25:41;24;22;
36453;PMS5003;22478;51.740;-1.314;2023-04-01T13:28:20;24;20;
36453;PMS5003;22478;51.740;-1.314;2023-04-01T13:30:53;17;17;
36453;PMS5003;22478;51.740;-1.314;2023-04-01T13:33:27;21;21;
36453;PMS5003;22478;51.740;-1.314;2023-04-01T13:36:08;26;26;
36453;PMS5003;22478;51.740;-1.314;2023-04-01T13:38:48;28;27;
36453;PMS5003;22478;51.740;-1.314;2023-04-01T13:41:32;21;21;
36453;PMS5003;22478;51.740;-1.314;2023-04-01T13:44:09;42;41;
36453;PMS5003;22478;51.740;-1.314;2023-04-01T13:46:46;16;16;
36453;PMS5003;22478;51.740;-1.314;2023-04-01T13:49:24;24;24;
36453;PMS5003;22478;51.740;-1.314;2023-04-01T13:52:06;47;47;
36453;PMS5003;22478;51.740;-1.314;2023-04-01T13:54:45;27;25;
36453;PMS5003;22478;51.740;-1.314;2023-04-01T13:57:31;21;21;
36453;PMS5003;22478;51.740;-1.314;2023-04-01T14:00:16;32;32;
36453;PMS5003;22478;51.740;-1.314;2023-04-01T14:02:59;22;21;
36453;PMS5003;22478;51.740;-1.314;2023-04-01T14:05:50;29;27;
36453;PMS5003;22478;51.740;-1.314;2023-04-01T14:08:29;34;34;
36453;PMS5003;22478;51.740;-1.314;2023-04-01T14:11:11;39;39;
36453;PMS5003;22478;51.740;-1.314;2023-04-01T14:13:47;31;30;
36453;PMS5003;22478;51.740;-1.314;2023-04-01T14:16:30;28;28;
36453;PMS5003;22478;51.740;-1.314;2023-04-01T14:19:19;35;34;
36453;PMS5003;22478;51.740;-1.314;2023-04-01T14:21:58;30;28;
36453;PMS5003;22478;51.740;-1.314;2023-04-01T14:24:42;34;34;
36453;PMS5003;22478;51.740;-1.314;2023-04-01T14:27:26;37;35;
36453;PMS5003;22478;51.740;-1.314;2023-04-01T14:30:12;45;45;
36453;PMS5003;22478;51.740;-1.314;2023-04-01T14:32:56;38;37;
36453;PMS5003;22478;51.740;-1.314;2023-04-01T14:35:34;34;31;
36453;PMS5003;22478;51.740;-1.314;2023-04-01T14:38:08;32;30;
36453;PMS5003;22478;51.740;-1.314;2023-04-01T14:40:54;35;34;
36453;PMS5003;22478;51.740;-1.314;2023-04-01T14:43:28;31;31;
36453;PMS5003;22478;51.740;-1.314;2023-04-01T14:46:14;27;26;
36453;PMS5003;22478;51.740;-1.314;2023-04-01T14:49:32;34;31;
36453;PMS5003;22478;51.740;-1.314;2023-04-01T14:52:09;33;31;
36453;PMS5003;22478;51.740;-1.314;2023-04-01T14:54:41;32;30;
36453;PMS5003;22478;51.740;-1.314;2023-04-01T14:57:12;53;52;
36453;PMS5003;22478;51.740;-1.314;2023-04-01T14:59:45;31;28;
36453;PMS5003;22478;51.740;-1.314;2023-04-01T15:02:18;28;28;
36453;PMS5003;22478;51.740;-1.314;2023-04-01T15:05:03;31;30;
36453;PMS5003;22478;51.740;-1.314;2023-04-01T15:07:47;33;33;
36453;PMS5003;22478;51.740;-1.314;2023-04-01T15:10:31;26;26;
36453;PMS5003;22478;51.740;-1.314;2023-04-01T15:13:12;29;29;
36453;PMS5003;22478;51.740;-1.314;2023-04-01T15:15:47;35;35;
36453;PMS5003;22478;51.740;-1.314;2023-04-01T15:18:31;31;31;
36453;PMS5003;22478;51.740;-1.314;2023-04-01T15:21:11;18;18;
36453;PMS5003;22478;51.740;-1.314;2023-04-01T15:23:54;43;42;
36453;PMS5003;22478;51.740;-1.314;2023-04-01T15:26:29;24;24;
36453;PMS5003;22478;51.740;-1.314;2023-04-01T15:30:17;19;19;
36453;PMS5003;22478;51.740;-1.314;2023-04-01T15:32:56;24;23;
36453;PMS5003;22478;51.740;-1.314;2023-04-01T15:35:39;22;22;
36453;PMS5003;22478;51.740;-1.314;2023-04-01T15:38:17;18;18;
36453;PMS5003;22478;51.740;-1.314;2023-04-01T15:40:56;15;15;
36453;PMS5003;22478;51.740;-1.314;2023-04-01T15:43:31;17;17;
36453;PMS5003;22478;51.740;-1.314;2023-04-01T15:46:12;28;25;
36453;PMS5003;22478;51.740;-1.314;2023-04-01T15:48:53;19;19;
36453;PMS5003;22478;51.740;-1.314;2023-04-01T15:51:35;15;15;
36453;PMS5003;22478;51.740;-1.314;2023-04-01T15:54:17;17;15;
36453;PMS5003;22478;51.740;-1.314;2023-04-01T15:56:54;21;21;
36453;PMS5003;22478;51.740;-1.314;2023-04-01T15:59:53;21;21;
36453;PMS5003;22478;51.740;-1.314;2023-04-01T16:02:31;28;28;
36453;PMS5003;22478;51.740;-1.314;2023-04-01T16:05:04;22;22;
36453;PMS5003;22478;51.740;-1.314;2023-04-01T16:07:48;29;29;
36453;PMS5003;22478;51.740;-1.314;2023-04-01T16:10:35;23;23;
36453;PMS5003;22478;51.740;-1.314;2023-04-01T16:13:20;17;17;
36453;PMS5003;22478;51.740;-1.314;2023-04-01T16:15:57;20;18;
36453;PMS5003;22478;51.740;-1.314;2023-04-01T16:18:34;47;46;
36453;PMS5003;22478;51.740;-1.314;2023-04-01T16:21:21;35;34;
36453;PMS5003;22478;51.740;-1.314;2023-04-01T16:24:04;27;27;
36453;PMS5003;22478;51.740;-1.314;2023-04-01T16:26:43;25;25;
36453;PMS5003;22478;51.740;-1.314;2023-04-01T16:29:19;17;16;
36453;PMS5003;22478;51.740;-1.314;2023-04-01T16:31:53;21;21;
36453;PMS5003;22478;51.740;-1.314;2023-04-01T16:34:29;38;38;
36453;PMS5003;22478;51.740;-1.314;2023-04-01T16:37:04;27;26;
36453;PMS5003;22478;51.740;-1.314;2023-04-01T16:39:37;28;24;
36453;PMS5003;22478;51.740;-1.314;2023-04-01T16:42:16;24;23;
36453;PMS5003;22478;51.740;-1.314;2023-04-01T16:44:52;35;35;
36453;PMS5003;22478;51.740;-1.314;2023-04-01T16:47:22;20;20;
36453;PMS5003;22478;51.740;-1.314;2023-04-01T16:49:56;43;42;
36453;PMS5003;22478;51.740;-1.314;2023-04-01T16:52:34;22;20;
36453;PMS5003;22478;51.740;-1.314;2023-04-01T16:55:13;25;25;
36453;PMS5003;22478;51.740;-1.314;2023-04-01T16:57:45;20;19;
36453;PMS5003;22478;51.740;-1.314;2023-04-01T17:00:20;17;17;
36453;PMS5003;22478;51.740;-1.314;2023-04-01T17:02:54;15;15;
36453;PMS5003;22478;51.740;-1.314;2023-04-01T17:05:49;25;24;
36453;PMS5003;22478;51.740;-1.314;2023-04-01T17:08:30;18;17;
36453;PMS5003;22478;51.740;-1.314;2023-04-01T17:11:14;20;20;
36453;PMS5003;22478;51.740;-1.314;2023-04-01T17:13:46;13;13;